Time;durP1;ratioP1;P1;durP2;ratioP2;P2;SDS_P1;SDS_P2;PMS_P1;PMS_P2;Temp;Humidity;BMP_temperature;BMP_pressure;BME280_temperature;BME280_humidity;BME280_pressure;Samples;Min_cycle;Max_cycle;Signal;HPM_P1;HPM_P2
2023/10/16 00:00:29;;;;;;;7.93;6.20;;;;;;;;;;4890421;29;20422;-90
2023/10/16 00:09:22;;;;;;;6.57;5.00;;;;;;;;;;4835238;29;20208;-90
2023/10/16 00:21:08;;;;;;;6.50;4.90;;;;;;;;;;4765451;30;20235;-89
2023/10/16 00:24:09;;;;;;;11.63;5.83;;;;;;;;;;4778222;29;20199;-90
2023/10/16 00:33:04;;;;;;;9.07;5.10;;;;;;;;;;4718340;30;20230;-90
2023/10/16 00:35:54;;;;;;;7.63;5.13;;;;;;;;;;4736391;30;20238;-90
2023/10/16 00:41:50;;;;;;;7.30;5.73;;;;;;;;;;4883826;29;20228;-90
2023/10/16 00:44:23;;;;;;;7.32;5.80;;;;;;;;;;4850330;29;20444;-89
2023/10/16 00:56:02;;;;;;;7.22;6.45;;;;;;;;;;4823392;29;20455;-90
2023/10/16 01:05:09;;;;;;;13.03;8.97;;;;;;;;;;4896522;29;20256;-90
2023/10/16 01:08:11;;;;;;;11.40;8.70;;;;;;;;;;4902501;29;20234;-89
2023/10/16 01:10:56;;;;;;;11.50;10.20;;;;;;;;;;4828353;29;20229;-89
2023/10/16 01:14:05;;;;;;;;;;;;;;;;;;;;;
2023/10/16 01:16:50;;;;;;;15.53;10.30;;;;;;;;;;4830332;29;20211;-90
2023/10/16 01:19:19;;;;;;;13.30;10.57;;;;;;;;;;4814683;29;20228;-90
2023/10/16 01:24:43;;;;;;;14.93;10.10;;;;;;;;;;4920327;29;20191;-89
2023/10/16 01:27:14;;;;;;;11.83;9.67;;;;;;;;;;4940876;29;20263;-90
2023/10/16 01:29:41;;;;;;;14.77;10.00;;;;;;;;;;4943041;29;20191;-89
2023/10/16 01:32:09;;;;;;;13.47;9.07;;;;;;;;;;4941991;29;20238;-90
2023/10/16 01:34:35;;;;;;;11.50;8.80;;;;;;;;;;4947524;29;20187;-89
2023/10/16 01:37:08;;;;;;;12.13;8.93;;;;;;;;;;4930650;29;20207;-89
2023/10/16 01:42:56;;;;;;;;;;;;;;;;;;;;;
2023/10/16 01:45:26;;;;;;;11.50;8.17;;;;;;;;;;4936737;29;20206;-93
2023/10/16 01:51:37;;;;;;;11.83;8.57;;;;;;;;;;4936818;29;20354;-93
2023/10/16 01:54:22;;;;;;;12.17;9.00;;;;;;;;;;4951152;29;20191;-93
2023/10/16 01:57:16;;;;;;;10.23;7.90;;;;;;;;;;4939246;29;20183;-91
2023/10/16 02:00:06;;;;;;;11.40;8.67;;;;;;;;;;4934468;29;20254;-92
2023/10/16 02:03:07;;;;;;;;;;;;;;;;;;;;;
2023/10/16 02:09:13;;;;;;;12.80;8.60;;;;;;;;;;4942888;28;20222;-94
2023/10/16 02:11:41;;;;;;;9.93;8.13;;;;;;;;;;4934112;29;20216;-93
2023/10/16 02:14:17;;;;;;;12.87;8.30;;;;;;;;;;4938535;29;20211;-92
2023/10/16 02:16:52;;;;;;;11.73;8.10;;;;;;;;;;4954051;29;20183;-94
2023/10/16 02:25:39;;;;;;;11.37;8.43;;;;;;;;;;4906083;29;20192;-93
2023/10/16 02:28:19;;;;;;;13.10;7.80;;;;;;;;;;4886304;29;20220;-94
2023/10/16 02:49:10;;;;;;;12.20;7.47;;;;;;;;;;4864822;29;20296;-92
2023/10/16 02:51:37;;;;;;;10.60;7.60;;;;;;;;;;4879908;29;20255;-93
2023/10/16 02:54:09;;;;;;;11.03;7.73;;;;;;;;;;4957782;29;20199;-92
2023/10/16 02:56:44;;;;;;;9.00;7.30;;;;;;;;;;4957808;29;20187;-91
2023/10/16 02:59:19;;;;;;;9.67;7.90;;;;;;;;;;4942289;29;20287;-93
2023/10/16 03:05:25;;;;;;;11.10;7.67;;;;;;;;;;4953897;29;20190;-88
2023/10/16 03:14:00;;;;;;;;;;;;;;;;;;;;;
2023/10/16 03:22:59;;;;;;;9.83;7.77;;;;;;;;;;4885566;29;20185;-88
2023/10/16 03:32:27;;;;;;;;;;;;;;;;;;;;;
2023/10/16 03:56:30;;;;;;;13.30;8.33;;;;;;;;;;4823866;29;20199;-89
2023/10/16 03:59:15;;;;;;;13.63;8.40;;;;;;;;;;4846404;29;20194;-90
2023/10/16 04:02:25;;;;;;;10.80;8.60;;;;;;;;;;4889815;29;20198;-89
2023/10/16 04:07:58;;;;;;;10.67;8.27;;;;;;;;;;4946161;29;20206;-90
2023/10/16 04:14:12;;;;;;;12.63;8.80;;;;;;;;;;4938154;29;20269;-89
2023/10/16 04:39:08;;;;;;;10.33;8.00;;;;;;;;;;4844164;29;20191;-93
2023/10/16 05:00:12;;;;;;;12.10;7.43;;;;;;;;;;4850157;29;20253;-93
2023/10/16 05:03:22;;;;;;;11.37;7.00;;;;;;;;;;4883323;29;20193;-92
2023/10/16 06:14:17;;;;;;;11.77;7.73;;;;;;;;;;4960154;29;20238;-92
2023/10/16 06:16:57;;;;;;;;;;;;;;;;;;;;;
2023/10/16 06:19:23;;;;;;;12.53;8.07;;;;;;;;;;4940954;29;20180;-91
2023/10/16 06:21:57;;;;;;;12.50;7.13;;;;;;;;;;4939421;29;20249;-91
2023/10/16 06:24:38;;;;;;;13.63;8.17;;;;;;;;;;4939699;29;20203;-92
2023/10/16 06:27:12;;;;;;;10.90;7.43;;;;;;;;;;4948512;29;20207;-91
2023/10/16 06:29:50;;;;;;;13.60;7.60;;;;;;;;;;4958403;29;20187;-91
2023/10/16 06:32:30;;;;;;;;;;;;;;;;;;;;;
2023/10/16 06:34:57;;;;;;;16.50;7.27;;;;;;;;;;4947796;29;20191;-91
2023/10/16 06:37:24;;;;;;;12.60;7.43;;;;;;;;;;4939365;29;20180;-92
2023/10/16 06:39:58;;;;;;;12.00;8.10;;;;;;;;;;4947208;29;20403;-92
2023/10/16 06:45:40;;;;;;;12.23;7.27;;;;;;;;;;4944953;29;20254;-92
2023/10/16 06:51:14;;;;;;;11.30;7.40;;;;;;;;;;4942699;29;20280;-92
2023/10/16 06:53:40;;;;;;;9.87;7.70;;;;;;;;;;4946670;29;20238;-91
2023/10/16 06:56:27;;;;;;;10.83;7.40;;;;;;;;;;4945985;29;20187;-92
2023/10/16 06:58:52;;;;;;;16.87;7.97;;;;;;;;;;4950666;28;20187;-91
2023/10/16 07:01:27;;;;;;;12.30;7.50;;;;;;;;;;4945801;29;20191;-91
2023/10/16 07:04:03;;;;;;;10.63;7.07;;;;;;;;;;4949641;29;20283;-87
2023/10/16 07:06:35;;;;;;;14.63;6.43;;;;;;;;;;4944322;29;20215;-86
2023/10/16 07:09:01;;;;;;;13.50;8.00;;;;;;;;;;4930585;29;20192;-86
2023/10/16 07:11:42;;;;;;;12.33;8.10;;;;;;;;;;4950264;29;20227;-86
2023/10/16 07:14:17;;;;;;;14.63;7.63;;;;;;;;;;4943728;29;20187;-87
2023/10/16 07:16:43;;;;;;;13.53;7.77;;;;;;;;;;4947196;29;20183;-87
2023/10/16 07:19:17;;;;;;;14.73;8.00;;;;;;;;;;4945995;29;20194;-86
2023/10/16 07:21:56;;;;;;;14.00;7.97;;;;;;;;;;4948061;29;20187;-86
2023/10/16 07:24:22;;;;;;;11.57;8.10;;;;;;;;;;4934022;29;20195;-87
2023/10/16 07:27:12;;;;;;;11.70;7.47;;;;;;;;;;4945532;29;20281;-86
2023/10/16 07:29:35;;;;;;;11.47;8.37;;;;;;;;;;4948026;29;20195;-87
2023/10/16 07:32:05;;;;;;;12.17;8.10;;;;;;;;;;4948658;29;20208;-86
2023/10/16 07:34:34;;;;;;;10.77;7.97;;;;;;;;;;4945440;29;20191;-86
2023/10/16 07:37:07;;;;;;;12.57;7.70;;;;;;;;;;4935665;29;20270;-87
2023/10/16 07:39:41;;;;;;;10.57;7.60;;;;;;;;;;4954019;29;20180;-86
2023/10/16 07:42:10;;;;;;;9.90;7.60;;;;;;;;;;4948152;29;20196;-85
2023/10/16 07:44:41;;;;;;;12.33;7.77;;;;;;;;;;4953519;29;20192;-85
2023/10/16 07:47:48;;;;;;;14.23;8.90;;;;;;;;;;4940478;29;20223;-87
2023/10/16 07:50:27;;;;;;;11.17;7.07;;;;;;;;;;4950174;29;20282;-86
2023/10/16 07:53:17;;;;;;;10.63;7.00;;;;;;;;;;4954478;29;20239;-85
2023/10/16 07:55:52;;;;;;;10.33;6.90;;;;;;;;;;4942406;29;20282;-87
2023/10/16 07:58:33;;;;;;;10.43;7.03;;;;;;;;;;4946987;29;20184;-86
2023/10/16 08:01:32;;;;;;;9.83;6.77;;;;;;;;;;4957694;29;20187;-86
2023/10/16 08:05:03;;;;;;;14.57;6.90;;;;;;;;;;4949744;29;20184;-87
2023/10/16 08:07:46;;;;;;;11.70;6.17;;;;;;;;;;4946332;29;20183;-86
2023/10/16 08:17:00;;;;;;;9.20;6.47;;;;;;;;;;4877023;29;20198;-85
2023/10/16 08:26:41;;;;;;;9.77;6.37;;;;;;;;;;4742878;30;20207;-85
2023/10/16 08:38:51;;;;;;;25.63;20.37;;;;;;;;;;4682317;30;20185;-86
2023/10/16 09:03:31;;;;;;;6.57;4.10;;;;;;;;;;4816284;29;20313;-91
2023/10/16 09:09:30;;;;;;;;;;;;;;;;;;;;;
2023/10/16 09:37:24;;;;;;;4.07;2.00;;;;;;;;;;4745251;30;20230;-91
2023/10/16 09:52:20;;;;;;;5.70;2.07;;;;;;;;;;4822898;29;20226;-91
2023/10/16 09:54:59;;;;;;;5.07;1.90;;;;;;;;;;4870903;29;20285;-91
2023/10/16 10:00:32;;;;;;;6.07;2.23;;;;;;;;;;4913925;29;20203;-88
2023/10/16 10:03:05;;;;;;;3.47;1.70;;;;;;;;;;4935034;29;20210;-88
2023/10/16 10:05:42;;;;;;;5.27;1.77;;;;;;;;;;4916776;29;20165;-89
2023/10/16 10:11:58;;;;;;;3.17;1.50;;;;;;;;;;4924295;29;20272;-90
2023/10/16 10:15:04;;;;;;;3.03;1.70;;;;;;;;;;4916750;29;20257;-89
2023/10/16 10:17:33;;;;;;;3.70;1.92;;;;;;;;;;4926183;29;20414;-89
2023/10/16 10:20:08;;;;;;;3.35;2.00;;;;;;;;;;4916788;29;20425;-89
2023/10/16 10:28:48;;;;;;;2.80;1.50;;;;;;;;;;4917809;29;20177;-89
2023/10/16 10:32:01;;;;;;;5.50;1.50;;;;;;;;;;4928756;29;20210;-91
2023/10/16 10:34:53;;;;;;;;;;;;;;;;;;;;;
2023/10/16 10:37:47;;;;;;;3.03;1.17;;;;;;;;;;4887706;29;20191;-89
2023/10/16 10:40:22;;;;;;;4.27;1.20;;;;;;;;;;4885081;29;20209;-89
2023/10/16 10:43:02;;;;;;;4.33;1.30;;;;;;;;;;4884965;29;20270;-90
2023/10/16 10:45:45;;;;;;;2.00;0.97;;;;;;;;;;4939616;29;20192;-90
2023/10/16 10:48:24;;;;;;;2.27;1.10;;;;;;;;;;4938893;29;20180;-89
2023/10/16 10:50:51;;;;;;;2.27;1.20;;;;;;;;;;4945921;29;20227;-89
2023/10/16 10:53:24;;;;;;;3.53;1.03;;;;;;;;;;4938569;29;20299;-89
2023/10/16 10:55:59;;;;;;;2.40;1.20;;;;;;;;;;4938328;29;20484;-89
2023/10/16 10:58:31;;;;;;;2.58;1.25;;;;;;;;;;4938372;29;20500;-88
2023/10/16 11:01:28;;;;;;;3.65;1.33;;;;;;;;;;4937830;29;20453;-88
2023/10/16 11:03:55;;;;;;;3.70;1.30;;;;;;;;;;4938100;29;20423;-89
2023/10/16 11:09:36;;;;;;;3.77;1.20;;;;;;;;;;4900104;29;20214;-89
2023/10/16 11:12:03;;;;;;;2.78;1.20;;;;;;;;;;4937289;29;20469;-88
2023/10/16 11:14:39;;;;;;;2.93;1.20;;;;;;;;;;4939146;29;20184;-89
2023/10/16 11:17:09;;;;;;;1.53;0.83;;;;;;;;;;4938780;29;20191;-88
2023/10/16 11:19:48;;;;;;;4.00;1.30;;;;;;;;;;4940447;29;20480;-89
2023/10/16 11:22:18;;;;;;;2.57;1.07;;;;;;;;;;4957848;29;20188;-88
2023/10/16 11:24:54;;;;;;;3.67;1.10;;;;;;;;;;4957517;29;20488;-89
2023/10/16 11:27:20;;;;;;;3.33;1.20;;;;;;;;;;4957583;29;20426;-89
2023/10/16 11:29:50;;;;;;;3.07;1.07;;;;;;;;;;4956868;29;20184;-90
2023/10/16 11:32:25;;;;;;;6.27;1.23;;;;;;;;;;4938692;29;20219;-89
2023/10/16 11:35:13;;;;;;;3.63;1.20;;;;;;;;;;4939019;29;20179;-89
2023/10/16 11:37:43;;;;;;;3.10;1.20;;;;;;;;;;4933081;29;20196;-89
2023/10/16 11:40:18;;;;;;;3.33;1.20;;;;;;;;;;4950479;29;20199;-89
2023/10/16 11:43:01;;;;;;;3.17;1.40;;;;;;;;;;4958470;29;20237;-88
2023/10/16 11:45:33;;;;;;;3.00;1.30;;;;;;;;;;4942628;29;20243;-88
2023/10/16 11:48:25;;;;;;;6.43;1.47;;;;;;;;;;4938507;29;20219;-88
2023/10/16 11:50:51;;;;;;;3.67;1.20;;;;;;;;;;4949429;29;20238;-87
2023/10/16 11:53:27;;;;;;;3.23;1.40;;;;;;;;;;4958361;29;20538;-88
2023/10/16 11:55:56;;;;;;;6.90;2.10;;;;;;;;;;4965444;29;20179;-88
2023/10/16 11:58:22;;;;;;;4.60;1.20;;;;;;;;;;4957738;29;20186;-89
2023/10/16 12:00:53;;;;;;;4.33;1.37;;;;;;;;;;4957193;29;20183;-89
2023/10/16 12:03:23;;;;;;;2.93;1.30;;;;;;;;;;4956675;29;20210;-89
2023/10/16 12:05:50;;;;;;;5.47;1.23;;;;;;;;;;4941272;29;20191;-89
2023/10/16 12:08:21;;;;;;;4.43;1.30;;;;;;;;;;4948766;29;20191;-88
2023/10/16 12:11:01;;;;;;;3.23;1.07;;;;;;;;;;4952323;29;20195;-89
2023/10/16 12:13:31;;;;;;;4.78;1.40;;;;;;;;;;4932206;29;20441;-89
2023/10/16 12:16:05;;;;;;;5.00;1.20;;;;;;;;;;4940127;29;20445;-88
2023/10/16 12:18:34;;;;;;;3.45;1.15;;;;;;;;;;4937470;29;20441;-88
2023/10/16 12:21:05;;;;;;;3.55;1.30;;;;;;;;;;4939082;29;20437;-89
2023/10/16 12:23:32;;;;;;;2.70;1.15;;;;;;;;;;4943266;29;20524;-89
2023/10/16 12:26:01;;;;;;;4.60;1.40;;;;;;;;;;4954088;29;20412;-89
2023/10/16 12:28:29;;;;;;;3.38;1.40;;;;;;;;;;4940775;29;20427;-89
2023/10/16 12:31:03;;;;;;;6.43;1.40;;;;;;;;;;4947992;29;20416;-90
2023/10/16 12:33:31;;;;;;;4.47;1.27;;;;;;;;;;4951734;29;20286;-88
2023/10/16 12:36:01;;;;;;;5.93;1.20;;;;;;;;;;4955119;29;20455;-88
2023/10/16 12:38:28;;;;;;;4.40;1.30;;;;;;;;;;4953104;29;20427;-89
2023/10/16 12:40:59;;;;;;;3.93;1.33;;;;;;;;;;4935871;29;20413;-89
2023/10/16 12:43:28;;;;;;;3.77;1.17;;;;;;;;;;4940254;29;20188;-88
2023/10/16 12:45:57;;;;;;;3.70;1.15;;;;;;;;;;4937063;29;20367;-89
2023/10/16 12:48:26;;;;;;;4.15;1.30;;;;;;;;;;4953918;29;20419;-88
2023/10/16 12:51:07;;;;;;;5.77;1.50;;;;;;;;;;4954680;29;20448;-87
2023/10/16 12:53:33;;;;;;;4.27;1.30;;;;;;;;;;4955463;29;20205;-87
2023/10/16 12:55:59;;;;;;;6.30;1.30;;;;;;;;;;4956003;29;20180;-86
2023/10/16 12:58:28;;;;;;;2.60;1.13;;;;;;;;;;4947458;28;20191;-87
2023/10/16 13:00:58;;;;;;;4.43;1.30;;;;;;;;;;4936014;29;20433;-87
2023/10/16 13:03:24;;;;;;;2.37;1.37;;;;;;;;;;4939875;29;20282;-87
2023/10/16 13:05:52;;;;;;;4.13;1.30;;;;;;;;;;4951446;29;20496;-88
2023/10/16 13:08:22;;;;;;;4.30;1.45;;;;;;;;;;4955752;29;20439;-84
2023/10/16 13:10:55;;;;;;;3.88;1.30;;;;;;;;;;4951951;29;20425;-85
2023/10/16 13:13:22;;;;;;;2.93;1.30;;;;;;;;;;4943917;29;20066;-85
2023/10/16 13:15:54;;;;;;;3.87;1.20;;;;;;;;;;4954376;29;20420;-84
2023/10/16 13:18:27;;;;;;;4.20;1.27;;;;;;;;;;4955602;29;20226;-85
2023/10/16 13:23:58;;;;;;;3.72;1.30;;;;;;;;;;4918635;29;20457;-85
2023/10/16 13:26:24;;;;;;;5.70;1.33;;;;;;;;;;4953519;29;20183;-87
2023/10/16 13:28:50;;;;;;;6.23;1.50;;;;;;;;;;4939450;29;20184;-85
2023/10/16 13:31:16;;;;;;;6.27;1.30;;;;;;;;;;4951301;29;20179;-86
2023/10/16 13:33:50;;;;;;;4.80;1.42;;;;;;;;;;4950711;29;20428;-84
2023/10/16 13:36:23;;;;;;;4.45;1.30;;;;;;;;;;4935477;29;20417;-85
2023/10/16 13:38:51;;;;;;;5.82;1.60;;;;;;;;;;4925193;29;20420;-85
2023/10/16 13:41:20;;;;;;;4.60;1.70;;;;;;;;;;4954830;29;20442;-84
2023/10/16 13:43:46;;;;;;;4.07;1.20;;;;;;;;;;4951249;29;20191;-85
2023/10/16 13:46:13;;;;;;;4.03;1.37;;;;;;;;;;4941490;29;20416;-85
2023/10/16 13:48:49;;;;;;;3.23;1.30;;;;;;;;;;4936197;29;20419;-87
2023/10/16 13:51:17;;;;;;;3.90;1.23;;;;;;;;;;4935694;29;20438;-87
2023/10/16 13:53:46;;;;;;;4.85;1.55;;;;;;;;;;4934981;29;20431;-87
2023/10/16 13:56:16;;;;;;;3.20;1.60;;;;;;;;;;4934929;29;20418;-87
2023/10/16 13:58:45;;;;;;;4.60;1.60;;;;;;;;;;4936112;29;20251;-87
2023/10/16 14:01:14;;;;;;;3.53;1.27;;;;;;;;;;4949214;29;20183;-86
2023/10/16 14:03:42;;;;;;;4.10;1.23;;;;;;;;;;4955159;29;20175;-86
2023/10/16 14:06:12;;;;;;;6.15;1.75;;;;;;;;;;4941225;29;20422;-86
2023/10/16 14:08:41;;;;;;;5.25;1.60;;;;;;;;;;4935674;29;20409;-85
2023/10/16 14:11:11;;;;;;;5.90;1.70;;;;;;;;;;4938574;29;20425;-85
2023/10/16 14:13:40;;;;;;;4.30;1.63;;;;;;;;;;4938810;29;20437;-85
2023/10/16 14:16:11;;;;;;;3.17;1.60;;;;;;;;;;4939392;29;20188;-86
2023/10/16 14:18:42;;;;;;;4.47;1.40;;;;;;;;;;4939546;29;20234;-85
2023/10/16 14:21:10;;;;;;;3.13;1.40;;;;;;;;;;4949984;29;20255;-85
2023/10/16 14:23:38;;;;;;;2.97;1.33;;;;;;;;;;4932097;29;20184;-86
2023/10/16 14:26:25;;;;;;;5.03;1.40;;;;;;;;;;4939259;29;20417;-85
2023/10/16 14:28:54;;;;;;;3.70;1.37;;;;;;;;;;4944706;29;20210;-85
2023/10/16 14:31:24;;;;;;;4.40;1.37;;;;;;;;;;4939860;29;20243;-86
2023/10/16 14:33:55;;;;;;;5.73;1.37;;;;;;;;;;4939045;29;20312;-86
2023/10/16 14:36:29;;;;;;;3.60;1.37;;;;;;;;;;4949573;29;20223;-85
2023/10/16 14:38:56;;;;;;;3.30;1.23;;;;;;;;;;4954896;29;20240;-87
2023/10/16 14:41:23;;;;;;;2.70;1.33;;;;;;;;;;4954951;29;20263;-85
2023/10/16 14:43:52;;;;;;;4.33;1.40;;;;;;;;;;4955407;29;20183;-85
2023/10/16 14:46:21;;;;;;;8.07;1.57;;;;;;;;;;4954699;29;20267;-85
2023/10/16 14:48:50;;;;;;;5.60;1.43;;;;;;;;;;4955096;29;20184;-86
2023/10/16 14:51:21;;;;;;;5.43;1.60;;;;;;;;;;4954816;29;20236;-86
2023/10/16 14:53:50;;;;;;;6.47;1.60;;;;;;;;;;4954416;29;20453;-86
2023/10/16 14:56:36;;;;;;;3.40;1.52;;;;;;;;;;4954633;29;20425;-86
2023/10/16 14:59:04;;;;;;;4.13;1.40;;;;;;;;;;4954602;29;20199;-86
2023/10/16 15:01:33;;;;;;;5.37;1.63;;;;;;;;;;4954306;29;20208;-86
2023/10/16 15:03:59;;;;;;;6.20;1.33;;;;;;;;;;4954492;29;20203;-86
2023/10/16 15:06:25;;;;;;;4.93;1.40;;;;;;;;;;4954294;29;20184;-86
2023/10/16 15:08:59;;;;;;;3.17;1.33;;;;;;;;;;4944928;29;20191;-85
2023/10/16 15:11:28;;;;;;;4.40;1.77;;;;;;;;;;4949799;29;20208;-85
2023/10/16 15:14:00;;;;;;;5.82;1.63;;;;;;;;;;4933772;29;20447;-85
2023/10/16 15:16:35;;;;;;;5.27;1.67;;;;;;;;;;4938076;29;20180;-85
2023/10/16 15:19:07;;;;;;;4.40;1.53;;;;;;;;;;4938383;29;20203;-85
2023/10/16 15:21:33;;;;;;;5.57;1.70;;;;;;;;;;4937062;29;20417;-85
2023/10/16 15:23:59;;;;;;;4.93;1.80;;;;;;;;;;4937651;29;20417;-85
2023/10/16 15:26:31;;;;;;;6.13;1.70;;;;;;;;;;4937299;29;20425;-86
2023/10/16 15:28:58;;;;;;;6.82;1.70;;;;;;;;;;4939565;29;20506;-86
2023/10/16 15:31:31;;;;;;;5.60;1.60;;;;;;;;;;4937324;29;20451;-86
2023/10/16 15:33:58;;;;;;;7.05;1.85;;;;;;;;;;4939709;29;20419;-86
2023/10/16 15:36:27;;;;;;;7.75;1.92;;;;;;;;;;4956477;29;20420;-86
2023/10/16 15:38:53;;;;;;;4.22;1.83;;;;;;;;;;4956923;29;20408;-86
2023/10/16 15:41:19;;;;;;;7.75;2.00;;;;;;;;;;4955946;29;20408;-86
2023/10/16 15:43:48;;;;;;;6.43;1.70;;;;;;;;;;4957019;29;20186;-87
2023/10/16 15:46:23;;;;;;;5.33;1.77;;;;;;;;;;4957041;29;20179;-86
2023/10/16 15:48:49;;;;;;;4.63;1.80;;;;;;;;;;4957368;29;20199;-85
2023/10/16 15:51:16;;;;;;;3.57;1.70;;;;;;;;;;4956719;29;20223;-87
2023/10/16 15:53:50;;;;;;;6.30;1.87;;;;;;;;;;4945317;29;20195;-86
2023/10/16 15:56:16;;;;;;;4.73;1.90;;;;;;;;;;4937752;29;20222;-87
2023/10/16 15:58:45;;;;;;;5.60;1.93;;;;;;;;;;4937542;29;20182;-87
2023/10/16 16:01:11;;;;;;;7.93;2.30;;;;;;;;;;4951235;29;20422;-87
2023/10/16 16:03:39;;;;;;;6.72;2.20;;;;;;;;;;4940199;29;20416;-87
2023/10/16 16:06:12;;;;;;;8.03;2.30;;;;;;;;;;4956648;29;20408;-87
2023/10/16 16:08:41;;;;;;;6.72;1.92;;;;;;;;;;4955549;29;20408;-86
2023/10/16 16:11:13;;;;;;;7.05;1.90;;;;;;;;;;4950787;29;20446;-86
2023/10/16 16:13:46;;;;;;;5.13;2.10;;;;;;;;;;4941337;29;20425;-86
2023/10/16 16:16:15;;;;;;;5.82;2.05;;;;;;;;;;4936497;29;20424;-87
2023/10/16 16:18:44;;;;;;;7.20;2.22;;;;;;;;;;4950424;29;20443;-87
2023/10/16 16:21:13;;;;;;;6.57;2.22;;;;;;;;;;4936492;29;20428;-88
2023/10/16 16:23:39;;;;;;;8.43;2.63;;;;;;;;;;4949482;29;20505;-88
2023/10/16 16:26:05;;;;;;;7.47;2.50;;;;;;;;;;4936850;29;20409;-86
2023/10/16 16:28:32;;;;;;;6.40;2.20;;;;;;;;;;4947052;29;20183;-86
2023/10/16 16:31:02;;;;;;;7.22;2.40;;;;;;;;;;4955736;29;20444;-86
2023/10/16 16:33:29;;;;;;;5.32;2.47;;;;;;;;;;4951021;28;20444;-86
2023/10/16 16:35:58;;;;;;;8.02;2.53;;;;;;;;;;4966060;29;20487;-86
2023/10/16 16:38:24;;;;;;;10.07;2.63;;;;;;;;;;4959405;29;20501;-86
2023/10/16 16:40:50;;;;;;;7.80;2.58;;;;;;;;;;4956029;29;20412;-86
2023/10/16 16:43:18;;;;;;;7.78;2.90;;;;;;;;;;4956273;29;20491;-87
2023/10/16 16:45:46;;;;;;;5.73;2.43;;;;;;;;;;4957631;29;20285;-86
2023/10/16 16:48:15;;;;;;;7.80;3.00;;;;;;;;;;4949577;29;20425;-87
2023/10/16 16:50:45;;;;;;;6.40;2.90;;;;;;;;;;4940382;29;20445;-86
2023/10/16 16:53:11;;;;;;;8.27;2.92;;;;;;;;;;4954336;29;20481;-86
2023/10/16 16:55:37;;;;;;;7.67;3.70;;;;;;;;;;4952246;29;20448;-85
2023/10/16 16:58:06;;;;;;;7.63;4.07;;;;;;;;;;4942937;28;20454;-85
2023/10/16 17:00:33;;;;;;;8.23;4.45;;;;;;;;;;4951097;29;20424;-84
2023/10/16 17:03:05;;;;;;;7.60;5.17;;;;;;;;;;4955887;29;20194;-86
2023/10/16 17:05:31;;;;;;;8.82;6.00;;;;;;;;;;4955152;29;20416;-86
2023/10/16 17:07:57;;;;;;;9.30;6.60;;;;;;;;;;4955089;29;20496;-86
2023/10/16 17:10:27;;;;;;;11.85;8.95;;;;;;;;;;4955007;29;20423;-85
2023/10/16 17:12:54;;;;;;;11.75;9.30;;;;;;;;;;4954521;29;20431;-85
2023/10/16 17:15:24;;;;;;;11.70;8.07;;;;;;;;;;4939764;29;20222;-86
2023/10/16 17:17:54;;;;;;;12.65;8.82;;;;;;;;;;4938021;29;20437;-84
2023/10/16 17:20:22;;;;;;;10.20;8.45;;;;;;;;;;4949677;29;20438;-85
2023/10/16 17:22:51;;;;;;;11.95;9.40;;;;;;;;;;4954338;29;20428;-85
2023/10/16 17:25:19;;;;;;;14.13;9.97;;;;;;;;;;4940267;29;20419;-85
2023/10/16 17:27:45;;;;;;;12.25;10.40;;;;;;;;;;4946624;29;20450;-84
2023/10/16 17:30:13;;;;;;;14.18;10.55;;;;;;;;;;4953365;29;20459;-84
2023/10/16 17:32:40;;;;;;;13.70;10.75;;;;;;;;;;4953967;29;20565;-84
2023/10/16 17:35:11;;;;;;;13.65;10.63;;;;;;;;;;4969863;28;20411;-85
2023/10/16 17:37:43;;;;;;;15.82;10.85;;;;;;;;;;4957050;28;21133;-84
2023/10/16 17:40:11;;;;;;;14.90;10.23;;;;;;;;;;4952433;29;20481;-84
2023/10/16 17:42:37;;;;;;;13.45;9.75;;;;;;;;;;4935919;29;20421;-84
2023/10/16 17:45:09;;;;;;;14.20;10.18;;;;;;;;;;4923515;29;20437;-85
2023/10/16 17:47:35;;;;;;;14.20;10.07;;;;;;;;;;4939231;29;20448;-85
2023/10/16 17:50:05;;;;;;;14.53;10.50;;;;;;;;;;4948013;29;20510;-85
2023/10/16 17:52:33;;;;;;;15.73;10.77;;;;;;;;;;4941613;29;20453;-83
2023/10/16 17:55:03;;;;;;;12.83;10.10;;;;;;;;;;4939842;29;20191;-83
2023/10/16 17:57:30;;;;;;;13.93;9.73;;;;;;;;;;4939636;29;20226;-84
2023/10/16 17:59:56;;;;;;;34.83;25.10;;;;;;;;;;4941943;29;20487;-84
2023/10/16 18:02:25;;;;;;;10.57;8.83;;;;;;;;;;4950730;29;20190;-84
2023/10/16 18:04:52;;;;;;;11.53;8.33;;;;;;;;;;4939055;29;20184;-84
2023/10/16 18:07:19;;;;;;;10.90;7.83;;;;;;;;;;4947153;29;20239;-83
2023/10/16 18:09:47;;;;;;;11.85;8.30;;;;;;;;;;4927430;29;20425;-83
2023/10/16 18:12:19;;;;;;;11.93;8.40;;;;;;;;;;4939893;29;20211;-84
2023/10/16 18:14:46;;;;;;;13.48;9.30;;;;;;;;;;4938839;29;20421;-84
2023/10/16 18:17:13;;;;;;;12.88;9.77;;;;;;;;;;4954148;29;20412;-84
2023/10/16 18:19:39;;;;;;;13.10;9.53;;;;;;;;;;4939895;29;20198;-84
2023/10/16 18:22:08;;;;;;;14.82;11.52;;;;;;;;;;4939730;29;20556;-84
2023/10/16 18:24:40;;;;;;;17.33;14.07;;;;;;;;;;4958039;29;20423;-84
2023/10/16 18:27:08;;;;;;;14.77;12.15;;;;;;;;;;4942527;29;20419;-84
2023/10/16 18:29:34;;;;;;;13.43;10.97;;;;;;;;;;4944401;29;20512;-84
2023/10/16 18:32:00;;;;;;;14.75;10.30;;;;;;;;;;4943877;29;20448;-83
2023/10/16 18:34:30;;;;;;;12.85;10.05;;;;;;;;;;4939352;29;20445;-84
2023/10/16 18:36:57;;;;;;;13.33;9.97;;;;;;;;;;4934953;29;20218;-85
2023/10/16 18:39:23;;;;;;;13.82;10.68;;;;;;;;;;4945810;29;20421;-84
2023/10/16 18:41:51;;;;;;;12.95;10.73;;;;;;;;;;4938543;29;20425;-83
2023/10/16 18:44:18;;;;;;;15.98;10.65;;;;;;;;;;4938170;29;20418;-84
2023/10/16 18:46:44;;;;;;;12.95;11.27;;;;;;;;;;4938442;29;20417;-84
2023/10/16 18:49:13;;;;;;;13.98;11.27;;;;;;;;;;4937968;29;20425;-85
2023/10/16 18:51:39;;;;;;;13.93;11.70;;;;;;;;;;4947468;29;20443;-84
2023/10/16 18:54:06;;;;;;;12.95;10.57;;;;;;;;;;4945415;29;20460;-84
2023/10/16 18:56:35;;;;;;;13.65;10.10;;;;;;;;;;4922278;29;20421;-85
2023/10/16 18:59:01;;;;;;;11.57;10.38;;;;;;;;;;4934826;29;20506;-84
2023/10/16 19:01:27;;;;;;;13.40;11.20;;;;;;;;;;4937658;29;20444;-84
2023/10/16 19:03:53;;;;;;;13.48;11.60;;;;;;;;;;4947149;29;20419;-84
2023/10/16 19:06:23;;;;;;;15.90;13.02;;;;;;;;;;4953537;29;20471;-85
2023/10/16 19:08:53;;;;;;;18.63;14.57;;;;;;;;;;4944117;29;20449;-85
2023/10/16 19:11:20;;;;;;;19.10;14.93;;;;;;;;;;4948756;29;20432;-84
2023/10/16 19:13:46;;;;;;;22.87;15.37;;;;;;;;;;4957467;29;20502;-84
2023/10/16 19:16:12;;;;;;;23.15;18.30;;;;;;;;;;4956756;29;20400;-85
2023/10/16 19:18:41;;;;;;;22.90;18.30;;;;;;;;;;4941477;29;20183;-85
2023/10/16 19:21:07;;;;;;;25.23;20.02;;;;;;;;;;4940701;29;20423;-85
2023/10/16 19:23:33;;;;;;;24.27;19.98;;;;;;;;;;4953014;29;20414;-85
2023/10/16 19:26:00;;;;;;;24.50;19.77;;;;;;;;;;4937748;29;20428;-85
2023/10/16 19:28:28;;;;;;;24.73;19.33;;;;;;;;;;4943163;29;20425;-85
2023/10/16 19:30:54;;;;;;;20.20;17.80;;;;;;;;;;4942000;29;20411;-85
2023/10/16 19:33:21;;;;;;;21.85;18.02;;;;;;;;;;4955355;29;20451;-84
2023/10/16 19:35:51;;;;;;;21.57;17.63;;;;;;;;;;4948983;29;20426;-84
2023/10/16 19:38:17;;;;;;;19.20;16.35;;;;;;;;;;4945927;29;20425;-84
2023/10/16 19:40:43;;;;;;;20.42;18.13;;;;;;;;;;4936901;29;20420;-84
2023/10/16 19:43:11;;;;;;;20.83;18.63;;;;;;;;;;4937191;29;20433;-84
2023/10/16 19:45:38;;;;;;;22.52;18.30;;;;;;;;;;4945003;29;20414;-84
2023/10/16 19:48:04;;;;;;;20.15;16.92;;;;;;;;;;4950398;29;20510;-85
2023/10/16 19:50:37;;;;;;;21.05;17.30;;;;;;;;;;4954614;29;20415;-84
2023/10/16 19:53:09;;;;;;;21.42;17.08;;;;;;;;;;4937802;29;20453;-84
2023/10/16 19:55:37;;;;;;;25.10;17.90;;;;;;;;;;4952827;29;20423;-86
2023/10/16 19:58:10;;;;;;;23.95;18.17;;;;;;;;;;4945865;29;20428;-86
2023/10/16 20:00:39;;;;;;;24.05;19.42;;;;;;;;;;4946970;29;20418;-85
2023/10/16 20:03:09;;;;;;;23.75;18.52;;;;;;;;;;4921503;29;20413;-85
2023/10/16 20:05:35;;;;;;;20.83;16.40;;;;;;;;;;4936449;29;20417;-85
2023/10/16 20:08:03;;;;;;;18.23;15.50;;;;;;;;;;4941966;29;20412;-85
2023/10/16 20:10:29;;;;;;;21.73;16.10;;;;;;;;;;4954101;29;20419;-85
2023/10/16 20:12:55;;;;;;;21.80;15.77;;;;;;;;;;4951377;29;20439;-86
2023/10/16 20:15:22;;;;;;;20.77;15.50;;;;;;;;;;4940335;29;21320;-86
2023/10/16 20:17:51;;;;;;;21.73;16.17;;;;;;;;;;4945176;29;20428;-86
2023/10/16 20:23:11;;;;;;;16.45;12.30;;;;;;;;;;4953250;29;20418;-87
2023/10/16 20:25:44;;;;;;;14.25;9.82;;;;;;;;;;4944122;29;20417;-86
2023/10/16 20:28:14;;;;;;;12.38;8.60;;;;;;;;;;4936366;29;20409;-86
2023/10/16 20:30:47;;;;;;;11.63;8.75;;;;;;;;;;4923584;29;20414;-86
2023/10/16 20:33:16;;;;;;;12.48;9.20;;;;;;;;;;4938479;29;20441;-86
2023/10/16 20:35:42;;;;;;;10.77;8.32;;;;;;;;;;4939196;29;20418;-86
2023/10/16 20:38:12;;;;;;;13.52;8.65;;;;;;;;;;4936768;29;20405;-86
2023/10/16 20:40:39;;;;;;;11.27;7.97;;;;;;;;;;4956711;29;20416;-86
2023/10/16 20:43:06;;;;;;;8.70;7.20;;;;;;;;;;4945815;29;20187;-86
2023/10/16 20:45:33;;;;;;;9.97;6.80;;;;;;;;;;4946409;29;20198;-86
2023/10/16 20:47:59;;;;;;;9.40;7.75;;;;;;;;;;4936274;29;20509;-86
2023/10/16 20:50:31;;;;;;;9.38;7.40;;;;;;;;;;4956741;29;20429;-86
2023/10/16 20:52:58;;;;;;;12.77;8.13;;;;;;;;;;4956032;29;20443;-86
2023/10/16 20:55:25;;;;;;;11.82;8.15;;;;;;;;;;4937319;29;20429;-86
2023/10/16 20:57:54;;;;;;;10.45;8.05;;;;;;;;;;4928402;29;20419;-86
2023/10/16 21:00:25;;;;;;;14.63;9.35;;;;;;;;;;4943231;29;20511;-86
2023/10/16 21:02:51;;;;;;;11.73;8.53;;;;;;;;;;4922228;29;20192;-86
2023/10/16 21:05:29;;;;;;;11.48;7.78;;;;;;;;;;4948000;29;20425;-86